sensor_id;sensor_type;location;lat;lon;timestamp;P1;durP1;ratioP1;P2;durP2;ratioP2
49458;SDS011;35354;51.296;16.924;2022-11-06T00:01:10;40.88;;;24.35;;
49458;SDS011;35354;51.296;16.924;2022-11-06T00:03:37;51.55;;;30.38;;
49458;SDS011;35354;51.296;16.924;2022-11-06T00:08:50;48.15;;;31.15;;
49458;SDS011;35354;51.296;16.924;2022-11-06T00:11:15;44.72;;;29.38;;
49458;SDS011;35354;51.296;16.924;2022-11-06T00:13:42;50.53;;;29.77;;
49458;SDS011;35354;51.296;16.924;2022-11-06T00:16:10;44.10;;;27.08;;
49458;SDS011;35354;51.296;16.924;2022-11-06T00:18:36;44.08;;;27.98;;
49458;SDS011;35354;51.296;16.924;2022-11-06T00:21:10;45.97;;;29.30;;
49458;SDS011;35354;51.296;16.924;2022-11-06T00:23:42;43.05;;;29.95;;
49458;SDS011;35354;51.296;16.924;2022-11-06T00:26:10;44.08;;;28.95;;
49458;SDS011;35354;51.296;16.924;2022-11-06T00:28:36;44.22;;;28.00;;
49458;SDS011;35354;51.296;16.924;2022-11-06T00:31:06;44.75;;;27.30;;
49458;SDS011;35354;51.296;16.924;2022-11-06T00:33:33;47.97;;;28.00;;
49458;SDS011;35354;51.296;16.924;2022-11-06T00:36:01;45.28;;;29.52;;
49458;SDS011;35354;51.296;16.924;2022-11-06T00:38:30;47.75;;;28.42;;
49458;SDS011;35354;51.296;16.924;2022-11-06T00:40:56;49.58;;;29.15;;
49458;SDS011;35354;51.296;16.924;2022-11-06T00:43:25;44.03;;;29.17;;
49458;SDS011;35354;51.296;16.924;2022-11-06T00:45:50;44.47;;;30.75;;
49458;SDS011;35354;51.296;16.924;2022-11-06T00:48:16;52.75;;;34.22;;
49458;SDS011;35354;51.296;16.924;2022-11-06T00:50:41;50.88;;;35.55;;
49458;SDS011;35354;51.296;16.924;2022-11-06T00:53:07;55.17;;;34.97;;
49458;SDS011;35354;51.296;16.924;2022-11-06T00:55:32;47.47;;;30.75;;
49458;SDS011;35354;51.296;16.924;2022-11-06T00:57:57;50.50;;;28.95;;
49458;SDS011;35354;51.296;16.924;2022-11-06T01:00:23;42.75;;;26.30;;
49458;SDS011;35354;51.296;16.924;2022-11-06T01:02:48;38.75;;;26.35;;
49458;SDS011;35354;51.296;16.924;2022-11-06T01:05:13;46.08;;;27.25;;
49458;SDS011;35354;51.296;16.924;2022-11-06T01:07:39;41.03;;;27.10;;
49458;SDS011;35354;51.296;16.924;2022-11-06T01:10:06;40.17;;;26.95;;
49458;SDS011;35354;51.296;16.924;2022-11-06T01:12:32;47.65;;;31.00;;
49458;SDS011;35354;51.296;16.924;2022-11-06T01:14:59;43.90;;;25.88;;
49458;SDS011;35354;51.296;16.924;2022-11-06T01:17:25;39.67;;;25.13;;
49458;SDS011;35354;51.296;16.924;2022-11-06T01:19:50;38.72;;;25.23;;
49458;SDS011;35354;51.296;16.924;2022-11-06T01:22:16;36.53;;;23.55;;
49458;SDS011;35354;51.296;16.924;2022-11-06T01:24:41;36.20;;;21.48;;
49458;SDS011;35354;51.296;16.924;2022-11-06T01:27:07;38.03;;;20.52;;
49458;SDS011;35354;51.296;16.924;2022-11-06T01:29:33;30.73;;;19.88;;
49458;SDS011;35354;51.296;16.924;2022-11-06T01:31:58;39.05;;;21.58;;
49458;SDS011;35354;51.296;16.924;2022-11-06T01:34:24;37.08;;;22.17;;
49458;SDS011;35354;51.296;16.924;2022-11-06T01:36:50;37.03;;;21.52;;
49458;SDS011;35354;51.296;16.924;2022-11-06T01:39:15;32.67;;;22.13;;
49458;SDS011;35354;51.296;16.924;2022-11-06T01:41:45;33.88;;;20.30;;
49458;SDS011;35354;51.296;16.924;2022-11-06T01:46:38;29.17;;;19.92;;
49458;SDS011;35354;51.296;16.924;2022-11-06T01:51:36;31.05;;;20.05;;
49458;SDS011;35354;51.296;16.924;2022-11-06T01:54:06;31.20;;;19.38;;
49458;SDS011;35354;51.296;16.924;2022-11-06T01:56:33;31.77;;;19.25;;
49458;SDS011;35354;51.296;16.924;2022-11-06T01:59:00;37.80;;;19.98;;
49458;SDS011;35354;51.296;16.924;2022-11-06T02:01:27;31.48;;;19.35;;
49458;SDS011;35354;51.296;16.924;2022-11-06T02:06:48;30.70;;;19.75;;
49458;SDS011;35354;51.296;16.924;2022-11-06T02:09:15;36.60;;;20.98;;
49458;SDS011;35354;51.296;16.924;2022-11-06T02:11:45;36.72;;;19.83;;
49458;SDS011;35354;51.296;16.924;2022-11-06T02:14:21;31.42;;;18.67;;
49458;SDS011;35354;51.296;16.924;2022-11-06T02:17:19;33.53;;;19.67;;
49458;SDS011;35354;51.296;16.924;2022-11-06T02:28:13;28.33;;;18.50;;
49458;SDS011;35354;51.296;16.924;2022-11-06T02:30:45;25.70;;;18.40;;
49458;SDS011;35354;51.296;16.924;2022-11-06T02:33:17;25.55;;;18.05;;
49458;SDS011;35354;51.296;16.924;2022-11-06T02:35:50;28.27;;;17.63;;
49458;SDS011;35354;51.296;16.924;2022-11-06T02:41:19;27.75;;;17.02;;
49458;SDS011;35354;51.296;16.924;2022-11-06T02:43:54;24.98;;;16.52;;
49458;SDS011;35354;51.296;16.924;2022-11-06T02:46:29;25.92;;;18.02;;
49458;SDS011;35354;51.296;16.924;2022-11-06T02:49:03;25.92;;;17.95;;
49458;SDS011;35354;51.296;16.924;2022-11-06T02:51:57;28.70;;;18.38;;
49458;SDS011;35354;51.296;16.924;2022-11-06T02:54:28;27.63;;;17.65;;
49458;SDS011;35354;51.296;16.924;2022-11-06T02:56:58;37.45;;;19.38;;
49458;SDS011;35354;51.296;16.924;2022-11-06T02:59:32;26.90;;;17.45;;
49458;SDS011;35354;51.296;16.924;2022-11-06T03:02:06;23.13;;;16.95;;
49458;SDS011;35354;51.296;16.924;2022-11-06T03:07:46;29.25;;;18.58;;
49458;SDS011;35354;51.296;16.924;2022-11-06T03:10:19;27.02;;;17.83;;
49458;SDS011;35354;51.296;16.924;2022-11-06T03:15:28;34.58;;;19.33;;
49458;SDS011;35354;51.296;16.924;2022-11-06T03:18:01;36.03;;;21.48;;
49458;SDS011;35354;51.296;16.924;2022-11-06T03:20:34;37.60;;;19.63;;
49458;SDS011;35354;51.296;16.924;2022-11-06T03:26:12;31.75;;;19.48;;
49458;SDS011;35354;51.296;16.924;2022-11-06T03:34:35;65.57;;;38.55;;
49458;SDS011;35354;51.296;16.924;2022-11-06T03:37:07;75.32;;;46.80;;
49458;SDS011;35354;51.296;16.924;2022-11-06T03:39:39;81.47;;;52.85;;
49458;SDS011;35354;51.296;16.924;2022-11-06T03:42:11;93.97;;;55.58;;
49458;SDS011;35354;51.296;16.924;2022-11-06T03:44:46;75.85;;;46.67;;
49458;SDS011;35354;51.296;16.924;2022-11-06T03:49:48;71.80;;;44.70;;
49458;SDS011;35354;51.296;16.924;2022-11-06T03:52:26;73.63;;;47.55;;
49458;SDS011;35354;51.296;16.924;2022-11-06T03:55:00;70.70;;;46.30;;
49458;SDS011;35354;51.296;16.924;2022-11-06T03:57:47;57.28;;;39.63;;
49458;SDS011;35354;51.296;16.924;2022-11-06T04:00:14;50.45;;;32.50;;
49458;SDS011;35354;51.296;16.924;2022-11-06T04:02:42;41.42;;;26.33;;
49458;SDS011;35354;51.296;16.924;2022-11-06T04:05:20;36.85;;;22.95;;
49458;SDS011;35354;51.296;16.924;2022-11-06T04:07:48;43.60;;;23.23;;
49458;SDS011;35354;51.296;16.924;2022-11-06T04:10:36;39.28;;;23.85;;
49458;SDS011;35354;51.296;16.924;2022-11-06T04:13:25;42.65;;;25.23;;
49458;SDS011;35354;51.296;16.924;2022-11-06T04:16:11;42.30;;;25.35;;
49458;SDS011;35354;51.296;16.924;2022-11-06T04:18:37;48.58;;;27.60;;
49458;SDS011;35354;51.296;16.924;2022-11-06T04:24:08;39.72;;;23.05;;
49458;SDS011;35354;51.296;16.924;2022-11-06T04:38:29;48.85;;;28.30;;
49458;SDS011;35354;51.296;16.924;2022-11-06T04:43:53;51.05;;;30.90;;
49458;SDS011;35354;51.296;16.924;2022-11-06T04:49:11;45.55;;;30.58;;
49458;SDS011;35354;51.296;16.924;2022-11-06T04:51:38;44.55;;;29.35;;
49458;SDS011;35354;51.296;16.924;2022-11-06T04:54:05;42.90;;;27.15;;
49458;SDS011;35354;51.296;16.924;2022-11-06T04:56:33;41.28;;;26.77;;
49458;SDS011;35354;51.296;16.924;2022-11-06T04:59:00;40.05;;;22.58;;
49458;SDS011;35354;51.296;16.924;2022-11-06T05:01:25;36.83;;;23.23;;
49458;SDS011;35354;51.296;16.924;2022-11-06T05:03:51;27.77;;;20.02;;
49458;SDS011;35354;51.296;16.924;2022-11-06T05:06:16;30.45;;;21.00;;
49458;SDS011;35354;51.296;16.924;2022-11-06T05:08:42;29.00;;;18.73;;
49458;SDS011;35354;51.296;16.924;2022-11-06T05:11:08;28.15;;;19.15;;
49458;SDS011;35354;51.296;16.924;2022-11-06T05:13:34;28.77;;;18.63;;
49458;SDS011;35354;51.296;16.924;2022-11-06T05:15:59;35.03;;;20.50;;
49458;SDS011;35354;51.296;16.924;2022-11-06T05:18:25;33.03;;;20.13;;
49458;SDS011;35354;51.296;16.924;2022-11-06T05:20:51;33.20;;;19.63;;
49458;SDS011;35354;51.296;16.924;2022-11-06T05:23:36;35.35;;;21.52;;
49458;SDS011;35354;51.296;16.924;2022-11-06T05:26:02;40.03;;;24.60;;
49458;SDS011;35354;51.296;16.924;2022-11-06T05:28:29;44.00;;;24.27;;
49458;SDS011;35354;51.296;16.924;2022-11-06T05:30:54;39.10;;;25.02;;
49458;SDS011;35354;51.296;16.924;2022-11-06T05:33:19;39.75;;;24.60;;
49458;SDS011;35354;51.296;16.924;2022-11-06T05:35:45;36.40;;;24.02;;
49458;SDS011;35354;51.296;16.924;2022-11-06T05:38:10;34.85;;;21.15;;
49458;SDS011;35354;51.296;16.924;2022-11-06T05:40:36;29.02;;;19.30;;
49458;SDS011;35354;51.296;16.924;2022-11-06T05:43:01;28.40;;;20.88;;
49458;SDS011;35354;51.296;16.924;2022-11-06T05:45:27;32.83;;;20.30;;
49458;SDS011;35354;51.296;16.924;2022-11-06T05:47:52;30.50;;;21.30;;
49458;SDS011;35354;51.296;16.924;2022-11-06T05:50:18;42.30;;;26.85;;
49458;SDS011;35354;51.296;16.924;2022-11-06T05:52:43;34.03;;;21.85;;
49458;SDS011;35354;51.296;16.924;2022-11-06T05:55:08;32.03;;;21.27;;
49458;SDS011;35354;51.296;16.924;2022-11-06T05:57:34;55.47;;;36.53;;
49458;SDS011;35354;51.296;16.924;2022-11-06T06:00:00;56.55;;;37.08;;
49458;SDS011;35354;51.296;16.924;2022-11-06T06:02:26;43.05;;;29.95;;
49458;SDS011;35354;51.296;16.924;2022-11-06T06:04:51;51.35;;;31.80;;
49458;SDS011;35354;51.296;16.924;2022-11-06T06:07:16;49.53;;;31.98;;
49458;SDS011;35354;51.296;16.924;2022-11-06T06:09:42;57.55;;;33.97;;
49458;SDS011;35354;51.296;16.924;2022-11-06T06:12:08;52.83;;;32.97;;
49458;SDS011;35354;51.296;16.924;2022-11-06T06:14:36;52.22;;;34.03;;
49458;SDS011;35354;51.296;16.924;2022-11-06T06:17:01;54.00;;;33.55;;
49458;SDS011;35354;51.296;16.924;2022-11-06T06:19:27;57.45;;;36.08;;
49458;SDS011;35354;51.296;16.924;2022-11-06T06:21:52;67.10;;;38.28;;
49458;SDS011;35354;51.296;16.924;2022-11-06T06:24:17;60.85;;;37.63;;
49458;SDS011;35354;51.296;16.924;2022-11-06T06:26:43;63.75;;;38.40;;
49458;SDS011;35354;51.296;16.924;2022-11-06T06:29:08;63.13;;;40.58;;
49458;SDS011;35354;51.296;16.924;2022-11-06T06:31:33;71.22;;;40.60;;
49458;SDS011;35354;51.296;16.924;2022-11-06T06:33:59;69.28;;;41.63;;
49458;SDS011;35354;51.296;16.924;2022-11-06T06:36:24;74.07;;;40.30;;
49458;SDS011;35354;51.296;16.924;2022-11-06T06:38:49;74.25;;;43.33;;
49458;SDS011;35354;51.296;16.924;2022-11-06T06:41:15;84.32;;;47.72;;
49458;SDS011;35354;51.296;16.924;2022-11-06T06:43:40;88.82;;;49.85;;
49458;SDS011;35354;51.296;16.924;2022-11-06T06:46:06;78.47;;;44.40;;
49458;SDS011;35354;51.296;16.924;2022-11-06T06:48:31;71.03;;;43.13;;
49458;SDS011;35354;51.296;16.924;2022-11-06T06:50:58;77.22;;;44.35;;
49458;SDS011;35354;51.296;16.924;2022-11-06T06:53:24;75.10;;;41.47;;
49458;SDS011;35354;51.296;16.924;2022-11-06T06:55:50;72.15;;;42.53;;
49458;SDS011;35354;51.296;16.924;2022-11-06T06:58:15;70.75;;;43.72;;
49458;SDS011;35354;51.296;16.924;2022-11-06T07:00:41;66.18;;;41.25;;
49458;SDS011;35354;51.296;16.924;2022-11-06T07:03:06;39.92;;;23.35;;
49458;SDS011;35354;51.296;16.924;2022-11-06T07:05:32;52.78;;;29.10;;
49458;SDS011;35354;51.296;16.924;2022-11-06T07:07:57;49.28;;;29.38;;
49458;SDS011;35354;51.296;16.924;2022-11-06T07:10:22;52.55;;;30.67;;
49458;SDS011;35354;51.296;16.924;2022-11-06T07:12:48;46.00;;;26.80;;
49458;SDS011;35354;51.296;16.924;2022-11-06T07:15:13;32.63;;;22.42;;
49458;SDS011;35354;51.296;16.924;2022-11-06T07:17:39;39.78;;;25.60;;
49458;SDS011;35354;51.296;16.924;2022-11-06T07:20:04;36.90;;;23.27;;
49458;SDS011;35354;51.296;16.924;2022-11-06T07:22:31;38.85;;;23.77;;
49458;SDS011;35354;51.296;16.924;2022-11-06T07:24:56;38.80;;;23.55;;
49458;SDS011;35354;51.296;16.924;2022-11-06T07:27:21;34.83;;;21.08;;
49458;SDS011;35354;51.296;16.924;2022-11-06T07:29:47;28.75;;;19.27;;
49458;SDS011;35354;51.296;16.924;2022-11-06T07:32:12;34.80;;;19.77;;
49458;SDS011;35354;51.296;16.924;2022-11-06T07:34:37;24.33;;;17.95;;
49458;SDS011;35354;51.296;16.924;2022-11-06T07:37:06;25.40;;;18.48;;
49458;SDS011;35354;51.296;16.924;2022-11-06T07:39:32;25.27;;;17.90;;
49458;SDS011;35354;51.296;16.924;2022-11-06T07:41:58;20.38;;;16.35;;
49458;SDS011;35354;51.296;16.924;2022-11-06T07:44:23;21.70;;;15.23;;
49458;SDS011;35354;51.296;16.924;2022-11-06T07:46:48;22.60;;;16.00;;
49458;SDS011;35354;51.296;16.924;2022-11-06T07:49:14;24.38;;;16.52;;
49458;SDS011;35354;51.296;16.924;2022-11-06T07:51:42;28.55;;;17.27;;
49458;SDS011;35354;51.296;16.924;2022-11-06T07:54:11;21.20;;;15.95;;
49458;SDS011;35354;51.296;16.924;2022-11-06T07:56:37;24.45;;;15.93;;
49458;SDS011;35354;51.296;16.924;2022-11-06T07:59:02;22.85;;;15.82;;
49458;SDS011;35354;51.296;16.924;2022-11-06T08:01:28;23.50;;;14.55;;
49458;SDS011;35354;51.296;16.924;2022-11-06T08:03:54;20.73;;;13.88;;
49458;SDS011;35354;51.296;16.924;2022-11-06T08:06:19;18.50;;;13.18;;
49458;SDS011;35354;51.296;16.924;2022-11-06T08:08:45;22.77;;;15.05;;
49458;SDS011;35354;51.296;16.924;2022-11-06T08:11:11;23.73;;;14.52;;
49458;SDS011;35354;51.296;16.924;2022-11-06T08:13:36;21.42;;;14.70;;
49458;SDS011;35354;51.296;16.924;2022-11-06T08:16:06;22.42;;;14.20;;
49458;SDS011;35354;51.296;16.924;2022-11-06T08:18:33;22.95;;;14.13;;
49458;SDS011;35354;51.296;16.924;2022-11-06T08:20:59;24.30;;;14.82;;
49458;SDS011;35354;51.296;16.924;2022-11-06T08:23:24;19.42;;;13.55;;
49458;SDS011;35354;51.296;16.924;2022-11-06T08:25:57;22.67;;;15.90;;
49458;SDS011;35354;51.296;16.924;2022-11-06T08:28:24;21.27;;;14.32;;
49458;SDS011;35354;51.296;16.924;2022-11-06T08:30:50;21.00;;;14.40;;
49458;SDS011;35354;51.296;16.924;2022-11-06T08:33:16;20.52;;;13.43;;
49458;SDS011;35354;51.296;16.924;2022-11-06T08:35:42;18.35;;;13.13;;
49458;SDS011;35354;51.296;16.924;2022-11-06T08:38:07;21.52;;;13.25;;
49458;SDS011;35354;51.296;16.924;2022-11-06T08:40:34;19.02;;;13.50;;
49458;SDS011;35354;51.296;16.924;2022-11-06T08:43:01;23.30;;;13.30;;
49458;SDS011;35354;51.296;16.924;2022-11-06T08:45:28;25.15;;;13.77;;
49458;SDS011;35354;51.296;16.924;2022-11-06T08:47:53;24.05;;;13.02;;
49458;SDS011;35354;51.296;16.924;2022-11-06T08:50:19;19.60;;;13.30;;
49458;SDS011;35354;51.296;16.924;2022-11-06T08:52:44;20.92;;;12.52;;
49458;SDS011;35354;51.296;16.924;2022-11-06T08:55:10;18.08;;;11.60;;
49458;SDS011;35354;51.296;16.924;2022-11-06T08:57:35;20.88;;;12.82;;
49458;SDS011;35354;51.296;16.924;2022-11-06T09:00:02;19.05;;;11.02;;
49458;SDS011;35354;51.296;16.924;2022-11-06T09:02:28;17.60;;;10.82;;
49458;SDS011;35354;51.296;16.924;2022-11-06T09:04:54;21.60;;;11.55;;
49458;SDS011;35354;51.296;16.924;2022-11-06T09:07:19;19.23;;;11.75;;
49458;SDS011;35354;51.296;16.924;2022-11-06T09:09:44;20.63;;;12.65;;
49458;SDS011;35354;51.296;16.924;2022-11-06T09:12:10;19.75;;;11.77;;
49458;SDS011;35354;51.296;16.924;2022-11-06T09:14:35;17.80;;;11.38;;
49458;SDS011;35354;51.296;16.924;2022-11-06T09:17:01;23.35;;;11.60;;
49458;SDS011;35354;51.296;16.924;2022-11-06T09:19:26;17.60;;;11.90;;
49458;SDS011;35354;51.296;16.924;2022-11-06T09:21:52;16.42;;;11.80;;
49458;SDS011;35354;51.296;16.924;2022-11-06T09:24:17;19.85;;;12.20;;
49458;SDS011;35354;51.296;16.924;2022-11-06T09:26:42;16.17;;;11.50;;
49458;SDS011;35354;51.296;16.924;2022-11-06T09:29:08;19.52;;;11.20;;
49458;SDS011;35354;51.296;16.924;2022-11-06T09:31:33;17.75;;;12.00;;
49458;SDS011;35354;51.296;16.924;2022-11-06T09:33:59;20.48;;;12.68;;
49458;SDS011;35354;51.296;16.924;2022-11-06T09:36:24;16.33;;;11.15;;
49458;SDS011;35354;51.296;16.924;2022-11-06T09:38:50;18.15;;;11.35;;
49458;SDS011;35354;51.296;16.924;2022-11-06T09:41:21;17.85;;;11.05;;
49458;SDS011;35354;51.296;16.924;2022-11-06T09:47:03;20.80;;;12.32;;
49458;SDS011;35354;51.296;16.924;2022-11-06T09:49:40;18.38;;;11.98;;
49458;SDS011;35354;51.296;16.924;2022-11-06T09:54:46;21.38;;;10.93;;
49458;SDS011;35354;51.296;16.924;2022-11-06T09:57:17;19.33;;;12.13;;
49458;SDS011;35354;51.296;16.924;2022-11-06T09:59:45;19.08;;;11.38;;
49458;SDS011;35354;51.296;16.924;2022-11-06T10:02:18;19.33;;;10.77;;
49458;SDS011;35354;51.296;16.924;2022-11-06T10:04:54;18.42;;;11.18;;
49458;SDS011;35354;51.296;16.924;2022-11-06T10:07:30;17.95;;;11.07;;
49458;SDS011;35354;51.296;16.924;2022-11-06T10:10:00;17.80;;;11.93;;
49458;SDS011;35354;51.296;16.924;2022-11-06T10:12:37;17.27;;;10.98;;
49458;SDS011;35354;51.296;16.924;2022-11-06T10:15:17;22.58;;;12.15;;
49458;SDS011;35354;51.296;16.924;2022-11-06T10:17:48;23.88;;;13.93;;
49458;SDS011;35354;51.296;16.924;2022-11-06T10:20:32;27.08;;;13.45;;
49458;SDS011;35354;51.296;16.924;2022-11-06T10:26:08;22.30;;;12.43;;
49458;SDS011;35354;51.296;16.924;2022-11-06T10:31:37;25.77;;;14.88;;
49458;SDS011;35354;51.296;16.924;2022-11-06T10:34:14;24.33;;;14.80;;
49458;SDS011;35354;51.296;16.924;2022-11-06T10:36:49;24.03;;;13.80;;
49458;SDS011;35354;51.296;16.924;2022-11-06T10:39:22;24.48;;;13.85;;
49458;SDS011;35354;51.296;16.924;2022-11-06T10:42:03;21.85;;;12.65;;
49458;SDS011;35354;51.296;16.924;2022-11-06T10:44:45;19.13;;;12.57;;
49458;SDS011;35354;51.296;16.924;2022-11-06T10:47:23;25.48;;;14.10;;
49458;SDS011;35354;51.296;16.924;2022-11-06T10:49:54;25.65;;;15.27;;
49458;SDS011;35354;51.296;16.924;2022-11-06T10:58:03;29.27;;;11.68;;
49458;SDS011;35354;51.296;16.924;2022-11-06T11:00:31;17.70;;;11.48;;
49458;SDS011;35354;51.296;16.924;2022-11-06T11:03:01;24.10;;;13.07;;
49458;SDS011;35354;51.296;16.924;2022-11-06T11:05:39;22.25;;;12.23;;
49458;SDS011;35354;51.296;16.924;2022-11-06T11:08:29;18.60;;;11.65;;
49458;SDS011;35354;51.296;16.924;2022-11-06T11:13:47;14.60;;;8.48;;
49458;SDS011;35354;51.296;16.924;2022-11-06T11:16:39;19.70;;;8.90;;
49458;SDS011;35354;51.296;16.924;2022-11-06T11:21:56;15.57;;;7.03;;
49458;SDS011;35354;51.296;16.924;2022-11-06T11:24:22;14.02;;;7.68;;
49458;SDS011;35354;51.296;16.924;2022-11-06T11:26:49;15.52;;;7.28;;
49458;SDS011;35354;51.296;16.924;2022-11-06T11:29:21;14.10;;;6.38;;
49458;SDS011;35354;51.296;16.924;2022-11-06T11:31:49;13.90;;;6.28;;
49458;SDS011;35354;51.296;16.924;2022-11-06T11:34:28;14.02;;;6.22;;
49458;SDS011;35354;51.296;16.924;2022-11-06T11:37:00;9.10;;;6.32;;
49458;SDS011;35354;51.296;16.924;2022-11-06T11:39:28;14.15;;;6.40;;
49458;SDS011;35354;51.296;16.924;2022-11-06T11:42:20;12.55;;;6.10;;
49458;SDS011;35354;51.296;16.924;2022-11-06T11:44:45;15.15;;;7.55;;
49458;SDS011;35354;51.296;16.924;2022-11-06T11:47:21;13.07;;;6.85;;
49458;SDS011;35354;51.296;16.924;2022-11-06T11:49:48;16.98;;;7.57;;
49458;SDS011;35354;51.296;16.924;2022-11-06T11:52:15;12.80;;;6.10;;
49458;SDS011;35354;51.296;16.924;2022-11-06T11:54:46;16.17;;;8.80;;
49458;SDS011;35354;51.296;16.924;2022-11-06T11:57:21;12.77;;;6.85;;
49458;SDS011;35354;51.296;16.924;2022-11-06T11:59:54;12.77;;;6.20;;
49458;SDS011;35354;51.296;16.924;2022-11-06T12:02:33;13.95;;;7.35;;
49458;SDS011;35354;51.296;16.924;2022-11-06T12:05:07;10.10;;;5.75;;
49458;SDS011;35354;51.296;16.924;2022-11-06T12:07:41;10.98;;;4.85;;
49458;SDS011;35354;51.296;16.924;2022-11-06T12:13:04;15.35;;;5.65;;
49458;SDS011;35354;51.296;16.924;2022-11-06T12:15:44;9.98;;;4.75;;
49458;SDS011;35354;51.296;16.924;2022-11-06T12:18:15;12.77;;;6.28;;
49458;SDS011;35354;51.296;16.924;2022-11-06T12:26:22;11.95;;;5.47;;
49458;SDS011;35354;51.296;16.924;2022-11-06T12:28:55;15.77;;;5.35;;
49458;SDS011;35354;51.296;16.924;2022-11-06T12:33:55;12.90;;;5.57;;
49458;SDS011;35354;51.296;16.924;2022-11-06T12:36:20;12.77;;;4.68;;
49458;SDS011;35354;51.296;16.924;2022-11-06T12:38:53;8.80;;;4.45;;
49458;SDS011;35354;51.296;16.924;2022-11-06T12:44:11;6.63;;;4.03;;
49458;SDS011;35354;51.296;16.924;2022-11-06T12:51:44;8.15;;;4.00;;
49458;SDS011;35354;51.296;16.924;2022-11-06T13:22:28;9.73;;;4.43;;
49458;SDS011;35354;51.296;16.924;2022-11-06T13:25:13;9.25;;;3.60;;
49458;SDS011;35354;51.296;16.924;2022-11-06T13:27:46;10.80;;;6.90;;
49458;SDS011;35354;51.296;16.924;2022-11-06T13:30:20;11.82;;;4.45;;
49458;SDS011;35354;51.296;16.924;2022-11-06T13:35:40;12.90;;;4.80;;
49458;SDS011;35354;51.296;16.924;2022-11-06T13:38:10;11.82;;;4.20;;
49458;SDS011;35354;51.296;16.924;2022-11-06T13:40:41;8.32;;;4.13;;
49458;SDS011;35354;51.296;16.924;2022-11-06T13:45:41;11.10;;;6.45;;
49458;SDS011;35354;51.296;16.924;2022-11-06T13:48:23;10.25;;;4.93;;
49458;SDS011;35354;51.296;16.924;2022-11-06T13:51:07;9.35;;;3.95;;
49458;SDS011;35354;51.296;16.924;2022-11-06T13:53:44;9.65;;;3.90;;
49458;SDS011;35354;51.296;16.924;2022-11-06T14:04:52;16.30;;;6.72;;
49458;SDS011;35354;51.296;16.924;2022-11-06T14:07:19;9.48;;;4.47;;
49458;SDS011;35354;51.296;16.924;2022-11-06T14:09:46;13.88;;;5.90;;
49458;SDS011;35354;51.296;16.924;2022-11-06T14:12:19;12.50;;;5.57;;
49458;SDS011;35354;51.296;16.924;2022-11-06T14:14:47;15.40;;;8.02;;
49458;SDS011;35354;51.296;16.924;2022-11-06T14:20:04;11.00;;;7.50;;
49458;SDS011;35354;51.296;16.924;2022-11-06T14:22:51;14.30;;;6.60;;
49458;SDS011;35354;51.296;16.924;2022-11-06T14:32:53;16.35;;;5.82;;
49458;SDS011;35354;51.296;16.924;2022-11-06T14:40:33;15.82;;;7.88;;
49458;SDS011;35354;51.296;16.924;2022-11-06T14:43:00;21.88;;;10.68;;
49458;SDS011;35354;51.296;16.924;2022-11-06T14:45:35;23.13;;;14.93;;
49458;SDS011;35354;51.296;16.924;2022-11-06T14:48:01;14.02;;;6.18;;
49458;SDS011;35354;51.296;16.924;2022-11-06T14:50:38;15.98;;;7.93;;
49458;SDS011;35354;51.296;16.924;2022-11-06T14:55:54;18.35;;;13.57;;
49458;SDS011;35354;51.296;16.924;2022-11-06T14:58:35;33.92;;;30.50;;
49458;SDS011;35354;51.296;16.924;2022-11-06T15:03:36;15.13;;;6.93;;
49458;SDS011;35354;51.296;16.924;2022-11-06T15:16:27;11.75;;;7.43;;
49458;SDS011;35354;51.296;16.924;2022-11-06T15:19:01;40.78;;;31.77;;
49458;SDS011;35354;51.296;16.924;2022-11-06T15:21:29;220.38;;;145.07;;
49458;SDS011;35354;51.296;16.924;2022-11-06T15:24:07;63.88;;;41.97;;
49458;SDS011;35354;51.296;16.924;2022-11-06T15:26:38;71.13;;;47.72;;
49458;SDS011;35354;51.296;16.924;2022-11-06T15:31:56;362.80;;;237.13;;
49458;SDS011;35354;51.296;16.924;2022-11-06T15:37:05;372.70;;;252.32;;
49458;SDS011;35354;51.296;16.924;2022-11-06T15:39:39;23.95;;;14.63;;
49458;SDS011;35354;51.296;16.924;2022-11-06T15:42:14;34.80;;;19.42;;
49458;SDS011;35354;51.296;16.924;2022-11-06T15:44:42;29.42;;;16.58;;
49458;SDS011;35354;51.296;16.924;2022-11-06T15:47:22;18.67;;;9.82;;
49458;SDS011;35354;51.296;16.924;2022-11-06T15:50:13;24.40;;;14.52;;
49458;SDS011;35354;51.296;16.924;2022-11-06T15:52:36;38.97;;;26.88;;
49458;SDS011;35354;51.296;16.924;2022-11-06T15:55:01;126.40;;;80.50;;
49458;SDS011;35354;51.296;16.924;2022-11-06T15:57:27;66.15;;;40.40;;
49458;SDS011;35354;51.296;16.924;2022-11-06T16:02:33;78.75;;;47.33;;
49458;SDS011;35354;51.296;16.924;2022-11-06T16:05:11;65.18;;;38.00;;
49458;SDS011;35354;51.296;16.924;2022-11-06T16:07:37;68.82;;;45.63;;
49458;SDS011;35354;51.296;16.924;2022-11-06T16:10:04;87.05;;;59.78;;
49458;SDS011;35354;51.296;16.924;2022-11-06T16:12:30;45.50;;;31.08;;
49458;SDS011;35354;51.296;16.924;2022-11-06T16:14:56;24.77;;;18.17;;
49458;SDS011;35354;51.296;16.924;2022-11-06T16:17:22;28.98;;;20.20;;
49458;SDS011;35354;51.296;16.924;2022-11-06T16:19:50;23.10;;;13.68;;
49458;SDS011;35354;51.296;16.924;2022-11-06T16:22:28;39.28;;;25.17;;
49458;SDS011;35354;51.296;16.924;2022-11-06T16:24:59;53.58;;;37.17;;
49458;SDS011;35354;51.296;16.924;2022-11-06T16:27:27;45.17;;;33.03;;
49458;SDS011;35354;51.296;16.924;2022-11-06T16:29:58;47.33;;;30.67;;
49458;SDS011;35354;51.296;16.924;2022-11-06T16:32:28;35.95;;;25.02;;
49458;SDS011;35354;51.296;16.924;2022-11-06T16:34:55;32.53;;;24.17;;
49458;SDS011;35354;51.296;16.924;2022-11-06T16:39:51;36.03;;;21.70;;
49458;SDS011;35354;51.296;16.924;2022-11-06T16:44:46;35.88;;;24.45;;
49458;SDS011;35354;51.296;16.924;2022-11-06T16:47:17;28.85;;;18.98;;
49458;SDS011;35354;51.296;16.924;2022-11-06T16:49:49;38.05;;;22.80;;
49458;SDS011;35354;51.296;16.924;2022-11-06T16:55:03;49.03;;;34.53;;
49458;SDS011;35354;51.296;16.924;2022-11-06T17:02:46;50.13;;;26.95;;
49458;SDS011;35354;51.296;16.924;2022-11-06T17:05:18;40.45;;;23.27;;
49458;SDS011;35354;51.296;16.924;2022-11-06T17:07:48;28.30;;;18.92;;
49458;SDS011;35354;51.296;16.924;2022-11-06T17:10:50;32.30;;;20.27;;
49458;SDS011;35354;51.296;16.924;2022-11-06T17:13:26;29.65;;;17.92;;
49458;SDS011;35354;51.296;16.924;2022-11-06T17:15:55;38.72;;;19.92;;
49458;SDS011;35354;51.296;16.924;2022-11-06T17:18:24;31.80;;;17.70;;
49458;SDS011;35354;51.296;16.924;2022-11-06T17:20:55;55.70;;;34.45;;
49458;SDS011;35354;51.296;16.924;2022-11-06T17:25:48;32.30;;;18.55;;
49458;SDS011;35354;51.296;16.924;2022-11-06T17:28:15;44.60;;;22.00;;
49458;SDS011;35354;51.296;16.924;2022-11-06T17:30:42;33.08;;;19.63;;
49458;SDS011;35354;51.296;16.924;2022-11-06T17:33:08;45.22;;;25.52;;
49458;SDS011;35354;51.296;16.924;2022-11-06T17:35:33;47.47;;;29.30;;
49458;SDS011;35354;51.296;16.924;2022-11-06T17:37:59;43.95;;;25.13;;
49458;SDS011;35354;51.296;16.924;2022-11-06T17:40:24;39.05;;;25.02;;
49458;SDS011;35354;51.296;16.924;2022-11-06T17:42:49;47.90;;;32.40;;